Time;durP1;ratioP1;P1;durP2;ratioP2;P2;SDS_P1;SDS_P2;PMS_P1;PMS_P2;Temp;Humidity;BMP_temperature;BMP_pressure;BME280_temperature;BME280_humidity;BME280_pressure;Samples;Min_cycle;Max_cycle;Signal;HPM_P1;HPM_P2
2022/09/02 00:01:21;;;;;;;12.40;5.13;;;;;;;22.16;74.12;101245.56;4985632;28;20042;-79
2022/09/02 00:03:47;;;;;;;12.48;5.70;;;;;;;21.80;73.89;101189.81;4985739;28;20046;-80
2022/09/02 00:06:15;;;;;;;15.10;4.95;;;;;;;22.17;73.89;101258.09;4986874;28;20113;-80
2022/09/02 00:08:43;;;;;;;10.88;4.70;;;;;;;20.59;73.61;100999.94;4985280;28;20469;-80
2022/09/02 00:11:14;;;;;;;9.70;4.80;;;;;;;21.95;73.97;101233.78;4985381;28;20054;-80
2022/09/02 00:13:40;;;;;;;10.18;4.78;;;;;;;21.57;74.02;101171.13;4986570;28;20553;-79
2022/09/02 00:16:09;;;;;;;10.70;4.43;;;;;;;20.98;73.93;101068.81;4986669;28;20100;-79
2022/09/02 00:18:36;;;;;;;9.63;4.45;;;;;;;22.04;73.50;101239.03;4985246;28;20050;-80
2022/09/02 00:21:03;;;;;;;6.80;4.05;;;;;;;21.91;73.45;101218.97;4985518;28;20494;-79
2022/09/02 00:23:30;;;;;;;10.50;4.25;;;;;;;21.88;73.08;101218.56;4985658;28;20485;-80
2022/09/02 00:25:57;;;;;;;12.65;4.22;;;;;;;21.97;72.87;101231.72;4985555;28;20058;-79
2022/09/02 00:28:23;;;;;;;10.55;4.00;;;;;;;21.72;73.09;101189.94;4985287;28;20050;-81
2022/09/02 00:30:51;;;;;;;11.02;3.72;;;;;;;21.96;72.84;101235.44;4985622;28;20074;-79
2022/09/02 00:33:18;;;;;;;11.02;3.90;;;;;;;22.01;72.42;101232.16;4986064;28;20465;-79
2022/09/02 00:35:45;;;;;;;8.68;3.78;;;;;;;22.00;72.24;101222.41;4990227;28;20371;-80
2022/09/02 00:38:12;;;;;;;7.53;3.75;;;;;;;22.02;72.15;101222.22;5004280;28;20057;-79
2022/09/02 00:40:43;;;;;;;8.70;3.22;;;;;;;21.80;71.95;101176.31;5008353;28;20054;-79
2022/09/02 00:43:10;;;;;;;6.82;3.60;;;;;;;22.06;72.18;101228.88;5008580;28;20058;-79
2022/09/02 00:45:37;;;;;;;7.88;4.05;;;;;;;22.05;72.47;101221.81;5009283;28;20053;-80
2022/09/02 00:48:06;;;;;;;13.80;3.90;;;;;;;21.99;72.37;101212.59;5008331;28;20049;-80
2022/09/02 00:50:35;;;;;;;5.47;3.28;;;;;;;21.41;72.08;101117.38;5008087;28;20081;-80
2022/09/02 00:53:07;;;;;;;11.88;3.08;;;;;;;21.57;72.41;101144.09;5008058;28;20054;-80
2022/09/02 00:55:39;;;;;;;7.85;3.78;;;;;;;21.98;72.23;101217.16;5008487;28;20583;-80
2022/09/02 00:58:24;;;;;;;9.93;2.88;;;;;;;21.63;72.58;101164.13;5008387;28;20144;-80
2022/09/02 01:00:57;;;;;;;5.97;2.55;;;;;;;21.73;72.52;101173.53;5008652;28;20049;-80
2022/09/02 01:03:28;;;;;;;6.40;3.20;;;;;;;21.85;72.64;101205.44;5007888;28;20050;-80
2022/09/02 01:05:56;;;;;;;10.15;3.75;;;;;;;21.64;72.94;101176.59;5008270;28;20085;-80
2022/09/02 01:08:28;;;;;;;15.73;4.57;;;;;;;21.76;72.85;101204.75;5007664;28;20069;-79
2022/09/02 01:10:56;;;;;;;8.82;4.57;;;;;;;21.67;73.20;101181.59;5008262;28;20062;-80
2022/09/02 01:13:26;;;;;;;9.40;3.53;;;;;;;21.77;73.21;101207.25;5023916;28;20096;-79
2022/09/02 01:16:22;;;;;;;7.57;3.67;;;;;;;21.53;72.99;101176.09;5008016;28;20112;-80
2022/09/02 01:18:51;;;;;;;11.05;3.65;;;;;;;21.64;73.72;101204.44;5007666;28;20189;-80
2022/09/02 01:21:19;;;;;;;9.05;4.05;;;;;;;21.64;73.68;101203.59;5009093;28;20050;-80
2022/09/02 01:23:47;;;;;;;7.10;4.60;;;;;;;21.50;73.98;101186.44;5007872;28;20135;-80
2022/09/02 01:26:13;;;;;;;11.82;5.05;;;;;;;21.65;74.31;101213.38;5007926;28;20047;-79
2022/09/02 01:28:40;;;;;;;10.77;4.63;;;;;;;21.66;74.52;101209.66;5007558;28;20563;-80
2022/09/02 01:31:08;;;;;;;9.43;3.80;;;;;;;21.31;74.30;101150.06;5007628;28;20441;-79
2022/09/02 01:33:34;;;;;;;12.13;5.03;;;;;;;21.70;74.36;101208.22;5008861;28;20061;-80
2022/09/02 01:36:03;;;;;;;10.32;4.70;;;;;;;21.46;74.09;101172.50;5010475;28;20081;-79
2022/09/02 01:38:30;;;;;;;8.73;3.97;;;;;;;21.73;73.73;101214.06;5010220;28;20045;-80
2022/09/02 01:40:57;;;;;;;6.57;4.38;;;;;;;21.68;73.67;101191.38;5007454;28;20391;-79
2022/09/02 01:43:25;;;;;;;12.68;4.13;;;;;;;21.79;73.60;101208.91;5007378;28;20050;-80
2022/09/02 01:45:55;;;;;;;8.55;4.20;;;;;;;21.74;73.38;101204.09;5006470;28;20548;-79
2022/09/02 01:48:22;;;;;;;11.60;3.95;;;;;;;21.28;73.83;101145.06;5003814;28;20292;-78
2022/09/02 01:50:55;;;;;;;15.05;5.03;;;;;;;21.20;73.67;101137.09;4987578;28;20050;-79
2022/09/02 01:53:23;;;;;;;9.60;4.60;;;;;;;21.62;73.79;101217.28;4987566;28;20074;-79
2022/09/02 01:55:49;;;;;;;5.93;4.07;;;;;;;21.20;74.66;101139.81;4988995;28;20078;-79
2022/09/02 01:58:16;;;;;;;11.05;4.03;;;;;;;21.54;74.65;101210.16;4987366;28;20709;-79
2022/09/02 02:00:43;;;;;;;8.73;4.20;;;;;;;20.95;74.28;101124.00;4988000;28;20139;-79
2022/09/02 02:03:10;;;;;;;8.25;4.38;;;;;;;21.36;74.65;101196.25;5003815;28;20145;-80
2022/09/02 02:05:37;;;;;;;15.13;4.38;;;;;;;21.37;74.84;101206.03;5004400;28;20050;-80
2022/09/02 02:08:04;;;;;;;11.43;4.53;;;;;;;21.15;74.68;101167.38;4988189;28;20050;-79
2022/09/02 02:10:31;;;;;;;8.52;4.40;;;;;;;21.45;74.24;101207.78;5004160;28;20050;-79
2022/09/02 02:13:00;;;;;;;11.50;5.05;;;;;;;21.56;73.90;101218.09;4987620;28;20046;-78
2022/09/02 02:15:27;;;;;;;10.60;5.47;;;;;;;21.55;74.15;101206.44;5004225;28;20054;-79
2022/09/02 02:17:52;;;;;;;13.07;5.78;;;;;;;21.50;74.13;101203.47;5004364;28;20048;-79
2022/09/02 02:20:20;;;;;;;10.23;4.82;;;;;;;21.33;74.33;101169.63;4987888;28;20146;-80
2022/09/02 02:22:47;;;;;;;15.52;5.78;;;;;;;21.55;74.20;101205.59;5004202;28;20064;-79
2022/09/02 02:25:15;;;;;;;9.25;4.80;;;;;;;21.48;74.18;101200.16;4987813;28;20585;-80
2022/09/02 02:27:42;;;;;;;9.02;5.53;;;;;;;21.39;74.40;101200.44;4989225;28;20054;-80
2022/09/02 02:30:11;;;;;;;11.68;4.85;;;;;;;21.37;74.19;101192.53;5004143;28;20061;-80
2022/09/02 02:32:38;;;;;;;6.63;5.13;;;;;;;21.49;74.50;101207.22;5003908;28;20062;-79
2022/09/02 02:35:05;;;;;;;11.27;5.60;;;;;;;21.33;73.99;101183.13;4987676;28;20161;-80
2022/09/02 02:37:32;;;;;;;7.45;5.22;;;;;;;21.40;74.38;101207.53;4999178;28;20050;-80
2022/09/02 02:39:58;;;;;;;12.15;5.05;;;;;;;21.31;74.82;101199.53;5007613;28;20301;-80
2022/09/02 02:42:25;;;;;;;8.90;5.32;;;;;;;21.24;74.73;101189.69;5007953;28;20258;-80
2022/09/02 02:44:52;;;;;;;12.80;4.90;;;;;;;21.39;73.82;101195.91;5007780;28;20487;-79
2022/09/02 02:47:19;;;;;;;10.93;5.53;;;;;;;21.26;74.25;101182.22;5007613;28;20099;-79
2022/09/02 02:49:45;;;;;;;10.20;4.95;;;;;;;21.27;74.25;101197.41;5008390;28;20061;-79
2022/09/02 02:52:12;;;;;;;14.32;5.93;;;;;;;21.21;74.51;101196.28;5015112;28;20131;-79
2022/09/02 02:54:40;;;;;;;8.52;5.05;;;;;;;21.07;74.96;101187.25;5018768;28;20115;-80
2022/09/02 02:57:08;;;;;;;10.98;5.40;;;;;;;21.17;74.99;101208.53;5016507;28;20358;-78
2022/09/02 02:59:36;;;;;;;8.90;5.47;;;;;;;21.18;74.74;101209.34;5012706;28;20123;-80
2022/09/02 03:02:05;;;;;;;9.73;5.97;;;;;;;20.74;74.71;101151.78;5010882;28;20250;-79
2022/09/02 03:04:33;;;;;;;12.80;6.45;;;;;;;21.07;74.94;101208.00;5010930;28;20379;-80
2022/09/02 03:06:59;;;;;;;10.00;5.97;;;;;;;20.31;74.82;101083.41;5009057;28;20116;-80
2022/09/02 03:09:26;;;;;;;11.65;6.40;;;;;;;21.12;75.14;101202.88;5026240;28;20430;-78
2022/09/02 03:11:53;;;;;;;10.52;5.78;;;;;;;21.11;75.48;101203.88;5016257;28;20045;-80
2022/09/02 03:14:20;;;;;;;14.40;6.70;;;;;;;20.91;75.40;101182.06;5020060;28;20529;-80
2022/09/02 03:16:46;;;;;;;12.65;5.55;;;;;;;21.03;75.21;101196.75;5021821;28;20112;-79
2022/09/02 03:19:13;;;;;;;8.43;5.38;;;;;;;21.03;75.06;101194.03;5021819;28;20042;-81
2022/09/02 03:21:41;;;;;;;10.95;6.55;;;;;;;20.75;75.49;101144.53;5018843;28;20110;-81
2022/09/02 03:24:10;;;;;;;8.57;6.13;;;;;;;20.87;75.74;101169.97;5020923;28;20041;-80
2022/09/02 03:26:39;;;;;;;13.90;6.55;;;;;;;20.90;75.47;101180.41;5014032;28;20045;-79
2022/09/02 03:29:06;;;;;;;6.72;6.03;;;;;;;20.97;75.54;101189.41;5009687;28;20057;-79
2022/09/02 03:31:33;;;;;;;9.65;5.43;;;;;;;20.82;75.52;101157.06;5006205;28;20050;-79
2022/09/02 03:33:59;;;;;;;10.07;5.97;;;;;;;20.10;75.46;101027.56;5022143;28;20050;-79
2022/09/02 03:36:34;;;;;;;10.77;6.88;;;;;;;20.96;75.50;101174.25;5005992;28;20057;-79
2022/09/02 03:39:05;;;;;;;10.63;6.47;;;;;;;20.92;75.60;101165.69;5007242;28;20111;-80
2022/09/02 03:41:36;;;;;;;10.65;5.97;;;;;;;20.42;75.11;101070.25;5008550;28;20046;-79
2022/09/02 03:44:03;;;;;;;14.30;5.47;;;;;;;21.17;74.48;101159.94;5023618;28;20460;-78
2022/09/02 03:46:30;;;;;;;7.38;5.65;;;;;;;21.29;74.26;101165.66;5007066;28;20116;-81
2022/09/02 03:48:56;;;;;;;9.15;5.70;;;;;;;21.03;74.50;101137.34;4996073;28;20065;-79
2022/09/02 03:51:24;;;;;;;12.27;5.07;;;;;;;21.15;74.64;101156.59;5002441;28;20104;-80
2022/09/02 03:53:51;;;;;;;10.40;5.65;;;;;;;21.01;74.85;101135.88;4985946;28;20121;-79
2022/09/02 03:56:19;;;;;;;9.13;6.25;;;;;;;20.98;75.21;101142.50;4986323;28;20055;-80
2022/09/02 03:58:48;;;;;;;8.60;5.55;;;;;;;20.97;75.22;101137.28;4987055;28;20073;-80
2022/09/02 04:01:20;;;;;;;10.95;4.93;;;;;;;21.06;75.31;101166.66;4986060;28;20661;-80
2022/09/02 04:03:48;;;;;;;9.90;5.28;;;;;;;21.05;75.29;101178.50;4985929;28;20137;-78
2022/09/02 04:06:17;;;;;;;8.75;5.78;;;;;;;20.94;75.60;101178.97;4985732;28;20046;-79
2022/09/02 04:08:44;;;;;;;9.20;5.15;;;;;;;20.75;75.76;101155.31;4987537;28;20100;-79
2022/09/02 04:11:16;;;;;;;9.13;5.22;;;;;;;20.86;75.93;101174.53;4990250;28;20050;-79
2022/09/02 04:13:46;;;;;;;10.65;5.82;;;;;;;20.59;76.18;101124.84;4990449;28;20070;-79
2022/09/02 04:16:19;;;;;;;10.32;5.68;;;;;;;20.89;76.34;101181.44;4990150;28;20043;-80
2022/09/02 04:18:46;;;;;;;7.60;5.67;;;;;;;20.89;76.50;101189.53;4990267;28;20054;-80
2022/09/02 04:21:13;;;;;;;14.10;5.18;;;;;;;20.87;76.42;101181.59;4991311;28;20046;-80
2022/09/02 04:23:40;;;;;;;12.00;6.93;;;;;;;20.85;76.76;101188.22;4990042;28;20054;-81
2022/09/02 04:26:10;;;;;;;11.40;5.65;;;;;;;20.12;76.94;101074.84;4990847;28;20046;-80
2022/09/02 04:28:37;;;;;;;21.48;6.25;;;;;;;20.80;76.56;101169.06;4989350;28;20394;-79
2022/09/02 04:31:06;;;;;;;9.35;5.43;;;;;;;20.27;76.57;101083.78;5005643;28;20245;-79
2022/09/02 04:33:34;;;;;;;12.93;5.15;;;;;;;20.79;76.75;101173.63;4989414;28;20051;-79
2022/09/02 04:36:05;;;;;;;11.52;6.07;;;;;;;20.84;76.37;101176.59;4989262;28;20098;-79
2022/09/02 04:38:32;;;;;;;6.00;3.78;;;;;;;20.57;76.32;101134.16;5008912;28;20054;-80
2022/09/02 04:40:59;;;;;;;10.75;4.88;;;;;;;20.86;76.21;101184.50;5009148;28;20290;-80
2022/09/02 04:43:25;;;;;;;10.18;4.65;;;;;;;20.92;75.92;101183.72;5008959;28;20050;-81
2022/09/02 04:45:52;;;;;;;15.98;4.82;;;;;;;20.63;76.18;101146.88;5008952;28;20058;-80
2022/09/02 04:48:19;;;;;;;9.13;4.10;;;;;;;20.93;75.62;101182.72;5008623;28;20139;-81
2022/09/02 04:50:46;;;;;;;6.35;4.60;;;;;;;20.95;75.07;101175.28;5008586;28;20111;-82
2022/09/02 04:53:13;;;;;;;12.90;5.47;;;;;;;20.94;75.47;101176.28;5009703;28;20066;-81
2022/09/02 04:55:41;;;;;;;5.35;4.35;;;;;;;21.10;74.68;101192.25;5024946;28;20409;-81
2022/09/02 04:58:09;;;;;;;11.82;4.75;;;;;;;21.12;74.36;101201.00;5008454;28;20053;-81
2022/09/02 05:00:38;;;;;;;8.68;4.70;;;;;;;19.79;74.62;100991.75;5008392;28;20108;-81
2022/09/02 05:03:05;;;;;;;11.40;4.95;;;;;;;21.14;74.52;101208.88;5007793;28;20089;-80
2022/09/02 05:05:33;;;;;;;8.75;5.00;;;;;;;21.11;74.42;101198.47;5024726;28;20056;-79
2022/09/02 05:08:03;;;;;;;7.00;4.05;;;;;;;21.18;74.35;101214.75;5008200;28;20548;-80
2022/09/02 05:10:32;;;;;;;13.82;4.90;;;;;;;19.77;73.94;100983.00;5008116;28;20136;-80
2022/09/02 05:12:59;;;;;;;13.73;4.70;;;;;;;20.96;74.16;101176.94;5008356;28;20124;-81
2022/09/02 05:15:26;;;;;;;7.10;4.93;;;;;;;21.17;73.75;101202.31;5008057;28;20042;-81
2022/09/02 05:17:53;;;;;;;6.38;4.60;;;;;;;21.19;73.97;101203.78;5008297;28;20584;-79
2022/09/02 05:20:19;;;;;;;7.03;4.63;;;;;;;21.05;73.76;101166.88;5006792;28;20390;-80
2022/09/02 05:22:48;;;;;;;10.32;4.65;;;;;;;21.27;73.34;101194.72;5007703;28;20057;-79
2022/09/02 05:25:15;;;;;;;7.50;4.68;;;;;;;21.17;73.30;101183.41;5008347;28;20053;-81
2022/09/02 05:27:42;;;;;;;9.93;5.10;;;;;;;21.11;73.28;101169.63;5008094;28;20409;-79
2022/09/02 05:30:09;;;;;;;7.20;5.10;;;;;;;21.15;73.33;101182.75;5008387;28;20053;-80
2022/09/02 05:32:36;;;;;;;9.52;4.82;;;;;;;21.37;73.19;101227.63;5008090;28;20123;-79
2022/09/02 05:35:04;;;;;;;12.15;5.28;;;;;;;21.44;73.19;101220.47;5007886;28;20041;-80
2022/09/02 05:37:34;;;;;;;10.45;5.55;;;;;;;21.23;73.19;101177.22;5008960;28;20053;-80
2022/09/02 05:40:01;;;;;;;11.95;5.50;;;;;;;21.34;72.88;101191.03;5007839;28;20120;-78
2022/09/02 05:42:29;;;;;;;8.65;4.88;;;;;;;21.30;73.09;101184.34;5008826;28;20050;-78
2022/09/02 05:44:56;;;;;;;7.13;5.45;;;;;;;21.54;73.06;101220.13;5014578;28;20057;-80
2022/09/02 05:47:23;;;;;;;14.35;6.78;;;;;;;20.35;72.87;101017.28;5010729;28;20555;-80
2022/09/02 05:49:51;;;;;;;11.98;6.60;;;;;;;21.59;72.59;101214.16;5010107;28;20169;-80
2022/09/02 05:52:17;;;;;;;11.82;6.15;;;;;;;21.37;72.34;101183.59;5008587;28;20330;-80
2022/09/02 05:54:44;;;;;;;7.05;5.90;;;;;;;21.11;72.34;101145.31;5007566;28;20053;-80
2022/09/02 05:57:14;;;;;;;13.20;5.65;;;;;;;21.59;71.92;101222.25;5007829;28;20060;-80
2022/09/02 05:59:42;;;;;;;14.65;5.93;;;;;;;21.64;71.43;101227.91;5024005;28;20050;-82
2022/09/02 06:02:11;;;;;;;12.57;6.50;;;;;;;21.58;71.43;101202.53;5007463;28;20072;-80
2022/09/02 06:04:41;;;;;;;13.68;6.72;;;;;;;21.67;71.23;101235.63;5007907;28;20049;-81
2022/09/02 06:07:08;;;;;;;10.73;5.78;;;;;;;20.42;71.08;101029.81;5009301;28;20054;-81
2022/09/02 06:09:39;;;;;;;12.25;5.80;;;;;;;21.45;71.17;101194.28;5007003;28;20049;-77
2022/09/02 06:12:07;;;;;;;10.85;5.80;;;;;;;21.12;71.19;101147.00;5007866;28;20045;-78
2022/09/02 06:14:34;;;;;;;9.38;5.97;;;;;;;21.13;71.08;101131.63;5006111;28;20128;-81
2022/09/02 06:17:04;;;;;;;9.50;5.90;;;;;;;21.30;71.16;101164.63;5007323;28;20046;-81
2022/09/02 06:19:35;;;;;;;8.82;5.78;;;;;;;21.36;70.74;101163.84;5006965;28;20054;-80
2022/09/02 06:22:06;;;;;;;10.60;6.22;;;;;;;20.98;69.88;101082.28;5007050;28;20441;-82
2022/09/02 06:24:36;;;;;;;10.80;7.30;;;;;;;21.87;69.71;101236.66;5007029;28;20075;-80
2022/09/02 06:27:06;;;;;;;17.65;13.82;;;;;;;21.66;69.42;101201.53;5006967;28;20057;-81
2022/09/02 06:29:32;;;;;;;13.27;7.75;;;;;;;21.21;68.93;101122.56;5007113;28;20375;-82
2022/09/02 06:31:59;;;;;;;12.43;7.72;;;;;;;21.85;69.02;101217.09;5006559;28;20057;-79
2022/09/02 06:34:26;;;;;;;9.77;6.50;;;;;;;22.03;68.80;101240.09;5006547;28;20413;-81
2022/09/02 06:36:53;;;;;;;15.43;7.55;;;;;;;21.97;67.91;101223.63;5006090;28;20520;-81
2022/09/02 06:39:22;;;;;;;12.30;6.88;;;;;;;22.16;67.72;101243.72;5006628;28;20100;-80
2022/09/02 06:41:49;;;;;;;15.05;6.63;;;;;;;22.20;68.53;101241.47;5006519;28;20085;-80
2022/09/02 06:44:17;;;;;;;11.38;6.78;;;;;;;22.27;67.55;101209.91;5007733;28;20081;-80
2022/09/02 06:46:51;;;;;;;11.73;7.05;;;;;;;21.74;67.08;101131.13;5023241;28;20050;-80
2022/09/02 06:49:20;;;;;;;13.88;6.53;;;;;;;22.31;67.26;101238.25;5007402;28;20103;-79
2022/09/02 06:51:49;;;;;;;8.48;6.18;;;;;;;22.06;67.59;101205.38;5006581;28;20490;-80
2022/09/02 06:54:18;;;;;;;10.20;6.78;;;;;;;22.26;67.34;101235.31;5022900;28;20184;-79
2022/09/02 06:56:49;;;;;;;12.30;6.65;;;;;;;22.38;67.18;101238.28;5006372;28;20049;-80
2022/09/02 06:59:20;;;;;;;11.05;6.13;;;;;;;22.23;67.25;101214.03;5006179;28;20493;-80
2022/09/02 07:01:48;;;;;;;11.60;7.10;;;;;;;22.25;66.39;101216.56;5006350;28;20134;-78
2022/09/02 07:07:07;;;;;;;16.23;6.63;;;;;;;22.09;66.04;101150.91;5007621;28;20077;-80
2022/09/02 07:09:34;;;;;;;13.07;6.55;;;;;;;21.80;66.11;101122.25;5006532;28;20064;-81
2022/09/02 07:12:02;;;;;;;11.70;6.85;;;;;;;21.76;65.99;101113.69;5008128;28;20514;-80
2022/09/02 07:14:36;;;;;;;11.30;7.55;;;;;;;22.34;65.54;101199.97;5006756;28;20054;-78
2022/09/02 07:17:04;;;;;;;13.60;7.50;;;;;;;22.44;65.55;101198.78;5006014;28;20401;-78
2022/09/02 07:19:30;;;;;;;15.18;8.05;;;;;;;22.30;64.91;101160.00;5006459;28;20132;-79
2022/09/02 07:21:57;;;;;;;12.30;7.28;;;;;;;22.70;65.75;101231.38;5005877;28;20057;-80
2022/09/02 07:24:24;;;;;;;10.75;6.88;;;;;;;22.65;65.48;101222.16;5007625;28;20064;-77
2022/09/02 07:26:51;;;;;;;12.27;6.93;;;;;;;22.43;65.59;101189.84;5007736;28;20053;-79
2022/09/02 07:29:21;;;;;;;9.30;5.75;;;;;;;22.69;65.61;101218.88;5007234;28;20050;-82
2022/09/02 07:31:49;;;;;;;10.52;5.70;;;;;;;22.70;65.01;101207.03;5005070;28;20074;-79
2022/09/02 07:34:17;;;;;;;22.52;5.88;;;;;;;22.65;64.64;101176.16;5005316;28;20049;-81
2022/09/02 07:36:44;;;;;;;11.27;6.60;;;;;;;22.92;64.58;101229.38;5004764;28;20136;-78
2022/09/02 07:39:13;;;;;;;8.27;5.00;;;;;;;22.86;65.40;101213.09;5005035;28;20057;-78
2022/09/02 07:41:41;;;;;;;15.63;6.40;;;;;;;22.93;64.26;101216.69;5006528;28;20053;-81
2022/09/02 07:44:08;;;;;;;9.52;5.50;;;;;;;22.95;64.74;101210.03;5006268;28;20065;-79
2022/09/02 07:46:36;;;;;;;9.32;5.82;;;;;;;22.55;63.23;101144.06;5008677;28;20057;-79
2022/09/02 07:49:06;;;;;;;5.47;4.97;;;;;;;23.08;62.78;101233.63;4998972;28;20518;-79
2022/09/02 07:51:37;;;;;;;13.38;6.20;;;;;;;22.88;62.59;101178.56;5006573;28;20049;-80
2022/09/02 07:54:06;;;;;;;11.52;5.20;;;;;;;23.18;62.50;101223.25;4988520;28;20054;-76
2022/09/02 07:56:33;;;;;;;10.63;5.18;;;;;;;23.14;62.98;101221.97;4988996;28;20054;-80
2022/09/02 07:59:00;;;;;;;7.43;4.28;;;;;;;23.07;62.77;101202.19;4986537;28;20125;-79
2022/09/02 08:01:27;;;;;;;5.13;4.63;;;;;;;22.69;62.71;101142.25;4987076;28;20043;-79
2022/09/02 08:03:54;;;;;;;5.88;4.50;;;;;;;23.14;62.73;101211.16;4986055;28;20109;-79
2022/09/02 08:06:25;;;;;;;8.05;4.88;;;;;;;23.19;62.67;101211.38;4985937;28;20054;-79
2022/09/02 08:09:03;;;;;;;6.55;4.60;;;;;;;23.41;62.16;101231.00;4986329;28;20055;-80
2022/09/02 08:11:31;;;;;;;12.02;4.15;;;;;;;22.65;61.70;101109.38;5002038;28;20062;-78
2022/09/02 08:14:01;;;;;;;9.02;5.32;;;;;;;23.25;61.58;101191.59;4986416;28;20396;-78
2022/09/02 08:16:34;;;;;;;10.70;5.07;;;;;;;23.52;61.22;101226.84;4988949;28;20485;-79
2022/09/02 08:19:08;;;;;;;8.75;4.50;;;;;;;23.62;60.73;101221.84;4986696;28;20085;-80
2022/09/02 08:21:35;;;;;;;16.25;5.63;;;;;;;23.19;59.80;101140.94;4986048;28;20253;-79
2022/09/02 08:24:02;;;;;;;5.18;4.65;;;;;;;23.61;59.22;101214.75;4985728;28;20054;-80
2022/09/02 08:26:30;;;;;;;13.38;4.95;;;;;;;23.61;59.09;101213.91;4986154;28;20418;-80
2022/09/02 08:28:57;;;;;;;5.80;5.03;;;;;;;23.53;58.76;101193.28;4985991;28;20347;-80
2022/09/02 08:31:24;;;;;;;8.30;5.30;;;;;;;23.63;58.58;101209.97;4988054;28;20050;-80
2022/09/02 08:33:51;;;;;;;8.85;5.45;;;;;;;23.62;58.40;101205.59;5020017;28;20050;-81
2022/09/02 08:36:19;;;;;;;6.18;4.78;;;;;;;23.80;58.16;101223.13;5006670;28;20121;-81
2022/09/02 08:38:46;;;;;;;8.98;5.50;;;;;;;23.72;57.84;101196.22;5007791;28;20385;-81
2022/09/02 08:41:22;;;;;;;8.75;5.38;;;;;;;23.83;56.80;101214.56;5006009;28;20096;-80
2022/09/02 08:43:52;;;;;;;8.40;5.05;;;;;;;23.68;57.31;101180.34;5005534;28;20293;-79
2022/09/02 08:46:24;;;;;;;11.45;5.47;;;;;;;24.05;57.13;101232.28;5005611;28;20049;-79
2022/09/02 08:48:58;;;;;;;12.40;5.78;;;;;;;24.01;56.68;101232.94;5006957;28;20124;-80
2022/09/02 08:51:32;;;;;;;8.90;4.60;;;;;;;24.14;56.47;101234.78;5006379;28;20073;-81
2022/09/02 08:54:19;;;;;;;6.78;3.75;;;;;;;23.97;54.92;101210.81;5006294;28;20276;-81
2022/09/02 08:56:47;;;;;;;6.38;3.95;;;;;;;23.94;54.36;101213.97;5008717;28;20061;-80
2022/09/02 08:59:14;;;;;;;7.00;4.25;;;;;;;24.22;54.36;101231.84;5009374;28;20053;-77
2022/09/02 09:02:04;;;;;;;12.98;5.32;;;;;;;24.33;54.47;101230.38;5009375;28;20062;-80
2022/09/02 09:04:37;;;;;;;10.82;4.80;;;;;;;24.05;55.47;101174.50;5009605;28;20060;-81
2022/09/02 09:07:34;;;;;;;10.80;4.90;;;;;;;24.50;54.17;101227.03;5010062;28;20513;-78
2022/09/02 09:10:12;;;;;;;9.20;5.63;;;;;;;24.49;54.83;101219.06;5008506;28;20493;-79
2022/09/02 09:12:39;;;;;;;8.65;5.43;;;;;;;24.64;54.04;101237.84;5007988;28;20549;-80
2022/09/02 09:15:36;;;;;;;7.00;5.00;;;;;;;24.60;53.66;101212.16;5010989;28;20041;-79
2022/09/02 09:18:07;;;;;;;7.43;4.95;;;;;;;24.75;53.97;101229.00;4994598;28;20046;-79
2022/09/02 09:20:41;;;;;;;7.15;4.13;;;;;;;24.93;53.45;101234.59;5009371;28;20490;-79
2022/09/02 09:23:32;;;;;;;5.60;4.93;;;;;;;25.04;51.93;101227.63;5009340;28;20057;-80
2022/09/02 09:26:11;;;;;;;7.72;4.88;;;;;;;24.95;51.73;101205.34;5008880;28;20049;-80
2022/09/02 09:28:44;;;;;;;6.25;4.65;;;;;;;24.58;52.20;101140.97;5009658;28;20053;-80
2022/09/02 09:31:20;;;;;;;6.70;4.25;;;;;;;25.12;52.37;101196.66;5009265;28;20417;-81
2022/09/02 09:33:59;;;;;;;9.75;5.38;;;;;;;25.35;51.22;101209.72;5009658;28;20045;-79
2022/09/02 09:36:38;;;;;;;6.95;5.22;;;;;;;25.50;50.94;101214.84;5009594;28;20495;-78
2022/09/02 09:39:19;;;;;;;11.43;5.03;;;;;;;25.59;50.60;101213.53;5009233;28;20453;-79
2022/09/02 09:41:47;;;;;;;7.33;4.47;;;;;;;25.28;51.05;101128.25;5008696;28;20053;-80
2022/09/02 09:44:29;;;;;;;8.98;4.80;;;;;;;25.94;49.77;101213.03;5010115;28;20320;-79
2022/09/02 09:47:00;;;;;;;8.98;4.28;;;;;;;25.44;50.39;101110.56;5025574;28;20046;-81
2022/09/02 09:49:27;;;;;;;;;;;;;;;26.28;49.88;101206.19;4995046;28;20454;-79
2022/09/02 09:51:55;;;;;;;8.77;4.32;;;;;;;26.37;49.07;101169.47;4990835;28;19968;-79
2022/09/02 09:54:25;;;;;;;6.35;3.88;;;;;;;25.93;47.54;101088.97;4992645;28;20057;-80
2022/09/02 09:57:11;;;;;;;4.10;3.28;;;;;;;26.66;47.08;101185.28;4993073;28;20470;-80
2022/09/02 09:59:55;;;;;;;6.32;3.92;;;;;;;26.70;46.15;101164.69;4993594;28;20494;-79
2022/09/02 10:02:25;;;;;;;5.95;4.10;;;;;;;26.68;46.45;101137.69;4986346;28;20062;-80
2022/09/02 10:05:13;;;;;;;12.80;4.03;;;;;;;27.17;46.73;101197.56;4984958;28;20054;-80
2022/09/02 10:07:42;;;;;;;6.60;3.55;;;;;;;27.18;45.95;101193.78;4987522;28;20438;-80
2022/09/02 10:10:26;;;;;;;6.82;3.97;;;;;;;27.20;44.96;101200.69;4987808;28;20113;-79
2022/09/02 10:12:58;;;;;;;8.18;5.18;;;;;;;27.12;44.83;101145.66;4987605;28;20055;-80
2022/09/02 10:15:55;;;;;;;6.90;3.83;;;;;;;27.38;42.97;101178.00;4987737;28;20046;-80
2022/09/02 10:18:27;;;;;;;4.75;3.70;;;;;;;27.20;43.87;101134.44;4987675;28;20057;-82
2022/09/02 10:21:21;;;;;;;8.43;3.90;;;;;;;27.63;43.49;101201.50;4988645;28;20537;-82
2022/09/02 10:24:07;;;;;;;6.28;3.85;;;;;;;27.87;42.29;101200.47;4988645;28;20049;-79
2022/09/02 10:26:49;;;;;;;3.70;3.35;;;;;;;28.09;42.85;101199.88;4987590;28;20529;-81
2022/09/02 10:29:22;;;;;;;;;;;;;;;28.09;41.43;101194.41;4988375;28;20108;-82
2022/09/02 10:32:12;;;;;;;10.55;4.15;;;;;;;28.46;41.32;101188.69;4989379;28;19956;-81
2022/09/02 10:35:04;;;;;;;4.55;3.38;;;;;;;28.18;37.68;101126.63;4988615;28;20050;-79
2022/09/02 10:37:42;;;;;;;5.65;3.53;;;;;;;28.57;38.14;101189.72;4996935;28;20403;-81
2022/09/02 10:40:14;;;;;;;5.93;3.30;;;;;;;28.53;38.58;101160.16;5006332;28;20054;-81
2022/09/02 10:42:56;;;;;;;7.05;3.83;;;;;;;28.81;39.56;101187.75;5006502;28;20489;-81
2022/09/02 10:45:35;;;;;;;4.35;3.45;;;;;;;28.54;38.71;101115.38;5007768;28;20088;-81
2022/09/02 10:48:13;;;;;;;6.90;3.80;;;;;;;29.10;38.52;101186.66;5023099;28;20054;-81
2022/09/02 10:51:14;;;;;;;6.28;3.60;;;;;;;29.34;36.06;101178.34;5006422;28;20544;-81
2022/09/02 10:54:02;;;;;;;10.07;3.50;;;;;;;29.40;36.75;101167.25;4988200;28;20482;-81
2022/09/02 10:56:39;;;;;;;5.93;3.50;;;;;;;29.49;37.35;101154.00;5007531;28;20143;-81
2022/09/02 10:59:15;;;;;;;4.32;3.92;;;;;;;29.11;38.08;101080.91;5006156;28;20398;-81
2022/09/02 11:01:45;;;;;;;8.52;3.72;;;;;;;29.56;38.60;101116.34;5022602;28;20564;-81
2022/09/02 11:04:38;;;;;;;3.45;3.10;;;;;;;29.76;36.84;101136.91;5006408;28;20060;-81
2022/09/02 11:07:09;;;;;;;3.15;2.85;;;;;;;29.76;36.52;101109.53;5006182;28;20391;-82
2022/09/02 11:09:42;;;;;;;5.65;3.90;;;;;;;29.53;35.60;101048.47;5007901;28;20366;-81
2022/09/02 11:12:21;;;;;;;5.53;3.28;;;;;;;30.14;34.28;101143.47;5006689;28;20113;-81
2022/09/02 11:15:10;;;;;;;10.02;4.00;;;;;;;30.32;34.44;101150.53;5007574;28;20057;-82
2022/09/02 11:17:45;;;;;;;3.88;3.30;;;;;;;30.01;34.33;101079.78;5006069;28;20104;-81
2022/09/02 11:20:29;;;;;;;3.38;2.80;;;;;;;30.65;33.04;101149.56;5022730;28;20073;-82
2022/09/02 11:23:12;;;;;;;5.75;3.72;;;;;;;29.71;33.33;100989.94;5005984;28;20049;-82
2022/09/02 11:25:53;;;;;;;3.33;3.03;;;;;;;30.76;34.34;101140.38;5006041;28;20506;-82
2022/09/02 11:28:42;;;;;;;6.70;3.88;;;;;;;30.62;34.00;101133.66;5005938;28;20487;-82
2022/09/02 11:31:34;;;;;;;3.42;3.13;;;;;;;30.80;34.29;101138.78;5005564;28;20061;-82
2022/09/02 11:34:33;;;;;;;4.57;3.92;;;;;;;30.76;34.37;101132.16;5005621;28;20061;-82
2022/09/02 11:37:10;;;;;;;8.10;3.50;;;;;;;30.82;35.42;101111.94;5006079;28;20092;-81
2022/09/02 11:39:48;;;;;;;6.88;3.10;;;;;;;30.88;34.72;101078.03;5005918;28;20049;-79
2022/09/02 11:42:55;;;;;;;3.92;3.30;;;;;;;31.40;34.66;101136.06;5006668;28;20076;-81